Time;durP1;ratioP1;P1;durP2;ratioP2;P2;SDS_P1;SDS_P2;PMS_P1;PMS_P2;Temp;Humidity;BMP_temperature;BMP_pressure;BME280_temperature;BME280_humidity;BME280_pressure;Samples;Min_cycle;Max_cycle;Signal;HPM_P1;HPM_P2
2021/10/14 00:00:57;;;;;;;;;38.00;32.00;;;;;17.61;100.00;102380.91;5070618;28;45517;-83
2021/10/14 00:03:22;;;;;;;;;36.00;33.00;;;;;17.56;100.00;102382.09;5065304;27;48440;-83
2021/10/14 00:05:48;;;;;;;;;39.25;29.50;;;;;17.58;100.00;102387.31;5078453;27;45358;-83
2021/10/14 00:08:14;;;;;;;;;35.25;28.00;;;;;17.56;100.00;102387.44;5064388;28;45454;-83
2021/10/14 00:10:39;;;;;;;;;41.50;33.25;;;;;17.54;100.00;102386.69;5068691;28;45527;-83
2021/10/14 00:13:05;;;;;;;;;38.75;32.50;;;;;17.53;100.00;102382.31;5069775;28;45336;-83
2021/10/14 00:15:31;;;;;;;;;37.75;31.50;;;;;17.53;100.00;102381.44;5060311;28;45328;-83
2021/10/14 00:18:00;;;;;;;;;42.75;34.00;;;;;17.52;100.00;102382.41;5063458;28;45383;-83
2021/10/14 00:20:26;;;;;;;;;36.25;31.25;;;;;17.51;100.00;102386.91;5065714;28;45425;-83
2021/10/14 00:22:52;;;;;;;;;42.50;32.75;;;;;17.52;100.00;102387.75;5077429;28;48266;-83
2021/10/14 00:25:19;;;;;;;;;40.50;32.75;;;;;17.54;100.00;102397.38;5062517;28;45354;-83
2021/10/14 00:27:45;;;;;;;;;36.00;32.25;;;;;17.48;100.00;102388.94;5061190;28;45501;-83
2021/10/14 00:30:11;;;;;;;;;42.50;29.50;;;;;17.49;100.00;102385.28;5075362;28;45286;-83
2021/10/14 00:32:36;;;;;;;;;37.00;28.50;;;;;17.46;100.00;102377.50;5059670;28;47322;-83
2021/10/14 00:35:02;;;;;;;;;35.50;29.75;;;;;17.44;100.00;102382.09;5073319;28;45353;-83
2021/10/14 00:37:27;;;;;;;;;29.25;29.25;;;;;17.45;100.00;102386.47;5059731;28;45469;-83
2021/10/14 00:39:53;;;;;;;;;47.25;34.75;;;;;17.47;100.00;102387.22;5077821;28;45334;-83
2021/10/14 00:42:18;;;;;;;;;34.75;31.00;;;;;17.52;100.00;102393.09;5080873;28;47161;-83
2021/10/14 00:44:49;;;;;;;;;40.00;35.00;;;;;17.51;100.00;102386.03;5079743;28;45291;-83
2021/10/14 00:47:20;;;;;;;;;37.50;30.50;;;;;17.46;100.00;102386.38;5082051;28;45371;-83
2021/10/14 00:49:45;;;;;;;;;35.75;30.25;;;;;17.38;100.00;102383.41;5070298;27;45616;-83
2021/10/14 00:52:11;;;;;;;;;42.25;32.00;;;;;17.37;100.00;102389.69;5066902;28;48334;-83
2021/10/14 00:54:38;;;;;;;;;36.25;34.00;;;;;17.38;100.00;102388.75;5068859;28;45856;-83
2021/10/14 00:57:04;;;;;;;;;45.75;33.00;;;;;17.36;100.00;102385.31;5067770;28;45410;-83
2021/10/14 00:59:30;;;;;;;;;37.25;33.75;;;;;17.33;100.00;102379.31;5060692;28;45523;-83
2021/10/14 01:01:56;;;;;;;;;34.75;32.00;;;;;17.31;100.00;102381.22;5075278;28;45499;-83
2021/10/14 01:04:21;;;;;;;;;40.75;33.75;;;;;17.21;100.00;102365.00;5076646;27;45481;-83
2021/10/14 01:06:47;;;;;;;;;45.25;35.00;;;;;17.20;100.00;102368.66;5079134;28;45470;-83
2021/10/14 01:09:12;;;;;;;;;41.75;34.50;;;;;17.20;100.00;102371.31;5078732;28;45591;-83
2021/10/14 01:11:39;;;;;;;;;48.25;36.75;;;;;17.17;100.00;102361.72;5071646;27;46327;-83
2021/10/14 01:14:05;;;;;;;;;40.75;36.00;;;;;17.09;100.00;102372.06;5067125;28;45649;-83
2021/10/14 01:16:36;;;;;;;;;48.25;36.75;;;;;17.17;100.00;102367.03;5060807;28;45232;-83
2021/10/14 01:19:01;;;;;;;;;43.25;34.75;;;;;17.13;100.00;102357.53;5060366;28;45358;-83
2021/10/14 01:21:27;;;;;;;;;40.25;34.50;;;;;17.10;100.00;102360.44;5072042;28;47052;-83
2021/10/14 01:23:53;;;;;;;;;48.50;34.00;;;;;17.17;100.00;102363.53;5068741;28;45375;-83
2021/10/14 01:26:19;;;;;;;;;46.75;35.00;;;;;17.15;100.00;102365.44;5072030;28;45184;-83
2021/10/14 01:28:44;;;;;;;;;46.50;33.75;;;;;17.13;100.00;102354.00;5062612;28;45425;-83
2021/10/14 01:31:09;;;;;;;;;43.00;34.50;;;;;17.12;100.00;102354.97;5063034;28;46491;-82
2021/10/14 01:33:35;;;;;;;;;41.50;34.00;;;;;17.11;100.00;102361.28;5075454;28;45317;-83
2021/10/14 01:36:01;;;;;;;;;42.75;35.00;;;;;17.11;100.00;102359.47;5072473;28;45324;-83
2021/10/14 01:38:26;;;;;;;;;47.00;34.25;;;;;17.10;100.00;102346.22;5060685;28;45292;-83
2021/10/14 01:40:52;;;;;;;;;42.50;34.00;;;;;17.12;100.00;102346.94;5070938;28;48145;-83
2021/10/14 01:43:17;;;;;;;;;46.25;34.50;;;;;17.15;100.00;102354.75;5068987;28;45266;-83
2021/10/14 01:45:43;;;;;;;;;42.25;34.50;;;;;17.12;100.00;102350.47;5071832;27;45277;-83
2021/10/14 01:48:08;;;;;;;;;38.50;34.75;;;;;17.09;100.00;102352.53;5079067;28;45476;-83
2021/10/14 01:50:33;;;;;;;;;40.75;34.00;;;;;17.09;100.00;102344.50;5079213;27;46024;-83
2021/10/14 01:52:59;;;;;;;;;44.75;35.50;;;;;17.10;100.00;102346.22;5059195;28;45475;-83
2021/10/14 01:55:24;;;;;;;;;43.25;34.75;;;;;17.08;100.00;102346.31;5077362;28;45275;-83
2021/10/14 01:57:49;;;;;;;;;45.00;35.00;;;;;17.12;100.00;102350.47;5063733;28;45453;-83
2021/10/14 02:00:15;;;;;;;;;41.25;35.50;;;;;17.09;100.00;102350.72;5063682;28;47298;-83
2021/10/14 02:02:40;;;;;;;;;39.00;31.50;;;;;17.05;100.00;102343.00;5088145;27;45346;-83
2021/10/14 02:05:07;;;;;;;;;45.50;35.75;;;;;17.00;100.00;102337.16;5080976;27;45417;-83
2021/10/14 02:07:32;;;;;;;;;46.50;35.00;;;;;16.97;100.00;102332.88;5079924;27;44697;-83
2021/10/14 02:09:58;;;;;;;;;46.00;36.00;;;;;17.01;100.00;102330.84;5080326;28;46952;-83
2021/10/14 02:12:25;;;;;;;;;47.50;37.00;;;;;17.01;100.00;102337.03;5082730;28;45405;-83
2021/10/14 02:14:51;;;;;;;;;39.25;34.50;;;;;17.00;100.00;102340.66;5079693;28;45271;-83
2021/10/14 02:17:16;;;;;;;;;49.25;33.75;;;;;16.82;100.00;102328.59;5063548;27;45224;-83
2021/10/14 02:19:41;;;;;;;;;37.75;34.25;;;;;16.82;100.00;102334.78;5062146;28;45248;-83
2021/10/14 02:22:07;;;;;;;;;46.50;36.25;;;;;16.90;100.00;102325.41;5063257;28;45318;-83
2021/10/14 02:24:32;;;;;;;;;44.25;36.25;;;;;16.89;100.00;102331.69;5063385;28;45472;-83
2021/10/14 02:26:57;;;;;;;;;42.75;35.00;;;;;16.89;100.00;102329.03;5064795;28;45188;-83
2021/10/14 02:29:23;;;;;;;;;45.75;36.00;;;;;16.85;100.00;102317.69;5063410;27;45389;-83
2021/10/14 02:31:48;;;;;;;;;44.25;35.75;;;;;16.82;100.00;102323.25;5062946;28;45208;-83
2021/10/14 02:34:14;;;;;;;;;45.00;36.00;;;;;16.84;100.00;102322.16;5063147;28;45439;-83
2021/10/14 02:36:39;;;;;;;;;42.50;35.00;;;;;16.75;100.00;102321.97;5067817;28;45374;-83
2021/10/14 02:39:05;;;;;;;;;47.25;35.25;;;;;16.78;100.00;102319.09;5072730;28;45390;-83
2021/10/14 02:41:30;;;;;;;;;38.50;34.50;;;;;16.76;100.00;102326.31;5067247;28;45652;-82
2021/10/14 02:43:56;;;;;;;;;40.25;34.00;;;;;16.69;100.00;102325.91;5061960;28;45247;-83
2021/10/14 02:46:21;;;;;;;;;46.25;36.50;;;;;16.61;100.00;102330.00;5062953;28;45428;-83
2021/10/14 02:48:46;;;;;;;;;49.25;38.25;;;;;16.56;100.00;102325.00;5064067;28;45343;-83
2021/10/14 02:51:12;;;;;;;;;43.50;35.00;;;;;16.60;100.00;102326.50;5084051;28;45395;-83
2021/10/14 02:53:37;;;;;;;;;47.00;35.00;;;;;16.59;100.00;102322.13;5083678;27;45408;-83
2021/10/14 02:56:02;;;;;;;;;41.00;35.00;;;;;16.64;100.00;102330.72;5077795;27;45604;-83
2021/10/14 02:58:28;;;;;;;;;48.25;36.00;;;;;16.63;100.00;102326.31;5071251;28;48058;-83
2021/10/14 03:00:53;;;;;;;;;47.50;37.00;;;;;16.56;100.00;102322.34;5081310;28;45432;-83
2021/10/14 03:03:19;;;;;;;;;47.25;37.75;;;;;16.55;100.00;102320.63;5081081;27;45441;-83
2021/10/14 03:05:44;;;;;;;;;47.50;36.50;;;;;16.57;100.00;102317.88;5080081;27;45218;-83
2021/10/14 03:08:10;;;;;;;;;53.25;38.75;;;;;16.58;100.00;102319.53;5066996;27;45660;-83
2021/10/14 03:10:35;;;;;;;;;46.00;39.00;;;;;16.57;100.00;102324.03;5072394;28;45908;-83
2021/10/14 03:13:00;;;;;;;;;49.50;38.00;;;;;16.55;100.00;102328.63;5081277;27;45148;-83
2021/10/14 03:15:26;;;;;;;;;52.00;38.00;;;;;16.55;100.00;102327.78;5065114;28;45225;-83
2021/10/14 03:17:51;;;;;;;;;45.00;36.25;;;;;16.50;100.00;102317.41;5082545;27;45667;-83
2021/10/14 03:20:17;;;;;;;;;45.75;37.50;;;;;16.55;100.00;102322.44;5064623;27;45249;-83
2021/10/14 03:22:42;;;;;;;;;48.00;36.50;;;;;16.57;100.00;102316.03;5072480;28;45371;-83
2021/10/14 03:25:08;;;;;;;;;44.25;39.00;;;;;16.60;100.00;102320.31;5068568;28;45214;-83
2021/10/14 03:27:34;;;;;;;;;49.50;36.25;;;;;16.52;100.00;102317.31;5069960;28;47319;-83
2021/10/14 03:30:00;;;;;;;;;42.75;35.75;;;;;16.48;100.00;102322.81;5070460;28;45307;-83
2021/10/14 03:32:25;;;;;;;;;52.75;39.00;;;;;16.49;100.00;102326.34;5069886;28;45436;-83
2021/10/14 03:34:50;;;;;;;;;51.75;38.25;;;;;16.48;100.00;102329.16;5083149;27;45410;-83
2021/10/14 03:37:16;;;;;;;;;50.25;37.25;;;;;16.45;100.00;102331.06;5080794;27;46123;-83
2021/10/14 03:39:42;;;;;;;;;49.25;39.75;;;;;16.34;100.00;102322.91;5063317;28;45429;-83
2021/10/14 03:42:07;;;;;;;;;48.00;38.25;;;;;16.38;100.00;102332.44;5079030;28;45452;-83
2021/10/14 03:44:32;;;;;;;;;47.75;38.75;;;;;16.35;100.00;102329.09;5080884;28;45428;-83
2021/10/14 03:46:58;;;;;;;;;52.00;39.50;;;;;16.33;100.00;102339.88;5070259;27;45377;-83
2021/10/14 03:49:23;;;;;;;;;39.75;35.75;;;;;16.34;100.00;102332.72;5077462;27;45468;-83
2021/10/14 03:51:48;;;;;;;;;44.25;36.50;;;;;16.37;100.00;102333.38;5073861;28;45382;-83
2021/10/14 03:54:14;;;;;;;;;47.75;37.75;;;;;16.35;100.00;102331.78;5061816;28;45309;-83
2021/10/14 03:56:39;;;;;;;;;46.00;36.75;;;;;16.33;100.00;102342.53;5070916;28;47005;-83
2021/10/14 03:59:05;;;;;;;;;50.00;36.75;;;;;16.26;100.00;102337.72;5065460;28;45458;-83
2021/10/14 04:01:30;;;;;;;;;45.50;36.00;;;;;16.25;100.00;102342.19;5073728;28;45160;-83
2021/10/14 04:03:55;;;;;;;;;48.00;34.00;;;;;16.24;100.00;102337.81;5061922;28;45162;-83
2021/10/14 04:06:21;;;;;;;;;38.75;35.75;;;;;16.26;100.00;102343.03;5073461;27;47018;-83
2021/10/14 04:08:46;;;;;;;;;44.00;36.50;;;;;16.31;100.00;102339.09;5073217;27;45234;-83
2021/10/14 04:11:11;;;;;;;;;42.25;32.75;;;;;16.26;100.00;102330.56;5081752;28;45294;-83
2021/10/14 04:13:37;;;;;;;;;45.00;37.25;;;;;16.30;100.00;102345.38;5063792;27;45579;-83
2021/10/14 04:16:02;;;;;;;;;51.50;39.25;;;;;16.28;100.00;102336.66;5077771;28;46991;-83
2021/10/14 04:18:28;;;;;;;;;49.00;36.25;;;;;16.21;100.00;102345.13;5068561;27;45478;-83
2021/10/14 04:20:53;;;;;;;;;33.25;31.75;;;;;16.21;100.00;102338.00;5069370;27;45351;-83
2021/10/14 04:23:20;;;;;;;;;41.00;36.25;;;;;16.23;100.00;102348.56;5065344;28;45985;-83
2021/10/14 04:25:46;;;;;;;;;43.50;35.50;;;;;16.24;100.00;102344.94;5071091;28;45707;-83
2021/10/14 04:28:11;;;;;;;;;40.75;35.25;;;;;16.20;100.00;102338.13;5060886;28;45378;-83
2021/10/14 04:30:37;;;;;;;;;45.50;36.50;;;;;16.30;100.00;102348.06;5061668;28;45473;-84
2021/10/14 04:33:03;;;;;;;;;43.00;35.75;;;;;16.28;100.00;102347.31;5074648;28;45414;-83
2021/10/14 04:35:28;;;;;;;;;44.75;35.75;;;;;16.25;100.00;102342.19;5080108;28;47121;-83
2021/10/14 04:37:54;;;;;;;;;45.75;36.00;;;;;16.27;100.00;102350.94;5075150;28;46149;-84
2021/10/14 04:40:19;;;;;;;;;46.50;36.25;;;;;16.32;100.00;102345.28;5077840;28;45281;-83
2021/10/14 04:42:45;;;;;;;;;40.75;34.75;;;;;16.30;100.00;102350.72;5061285;28;45402;-83
2021/10/14 04:45:10;;;;;;;;;42.00;36.00;;;;;16.30;100.00;102345.38;5071410;28;48168;-84
2021/10/14 04:47:36;;;;;;;;;41.00;35.00;;;;;16.29;100.00;102342.84;5061047;28;45442;-84
2021/10/14 04:50:04;;;;;;;;;49.75;37.25;;;;;16.27;100.00;102344.75;5076522;27;45525;-84
2021/10/14 04:52:30;;;;;;;;;52.50;37.75;;;;;16.27;100.00;102342.94;5070941;28;45599;-83
2021/10/14 04:54:55;;;;;;;;;47.00;35.50;;;;;16.26;100.00;102348.38;5075529;27;45370;-87
2021/10/14 04:57:21;;;;;;;;;43.75;33.25;;;;;16.28;100.00;102346.47;5066249;28;45300;-86
2021/10/14 04:59:46;;;;;;;;;48.25;38.00;;;;;16.26;100.00;102343.03;5062986;28;45877;-85
2021/10/14 05:02:11;;;;;;;;;49.00;36.00;;;;;16.23;100.00;102346.75;5072523;28;45537;-88
2021/10/14 05:04:37;;;;;;;;;46.25;35.00;;;;;16.25;100.00;102346.66;5082489;27;45454;-86
2021/10/14 05:07:02;;;;;;;;;43.50;35.25;;;;;16.24;100.00;102345.81;5078848;27;45447;-85
2021/10/14 05:09:28;;;;;;;;;51.25;38.00;;;;;16.24;100.00;102347.63;5071113;27;46524;-85
2021/10/14 05:11:53;;;;;;;;;47.75;37.00;;;;;16.23;100.00;102343.22;5076875;28;45453;-87
2021/10/14 05:14:19;;;;;;;;;41.75;34.25;;;;;16.23;100.00;102341.41;5065646;27;45415;-92
2021/10/14 05:16:45;;;;;;;;;48.75;34.00;;;;;16.22;100.00;102337.03;5071337;28;45744;-87
2021/10/14 05:19:10;;;;;;;;;46.75;36.50;;;;;16.23;100.00;102348.56;5080234;28;45802;-86
2021/10/14 05:21:36;;;;;;;;;40.00;34.50;;;;;16.21;100.00;102350.47;5074901;28;45679;-84
2021/10/14 05:24:02;;;;;;;;;40.75;34.25;;;;;16.19;100.00;102363.06;5065512;28;47177;-86
2021/10/14 05:26:29;;;;;;;;;43.50;37.00;;;;;16.21;100.00;102350.47;5083977;27;45173;-86
2021/10/14 05:28:56;;;;;;;;;39.75;34.00;;;;;16.24;100.00;102360.94;5079650;27;45401;-85
2021/10/14 05:31:21;;;;;;;;;45.75;36.25;;;;;16.21;100.00;102361.97;5065165;28;45427;-86
2021/10/14 05:33:47;;;;;;;;;44.00;33.75;;;;;16.23;100.00;102365.41;5059642;28;47212;-86
2021/10/14 05:36:12;;;;;;;;;42.25;33.50;;;;;16.21;100.00;102356.66;5077309;28;45379;-84
2021/10/14 05:38:38;;;;;;;;;40.25;34.00;;;;;16.24;100.00;102363.59;5076417;27;45509;-86
2021/10/14 05:41:03;;;;;;;;;40.75;33.50;;;;;16.24;100.00;102361.78;5071201;27;45479;-82
2021/10/14 05:43:29;;;;;;;;;48.75;37.75;;;;;16.22;100.00;102355.69;5059400;28;45353;-82
2021/10/14 05:45:55;;;;;;;;;46.00;37.00;;;;;16.25;100.00;102362.66;5059542;28;45318;-82
2021/10/14 05:48:23;;;;;;;;;42.00;36.25;;;;;16.21;100.00;102361.13;5060882;28;45379;-81
2021/10/14 05:50:48;;;;;;;;;47.50;37.00;;;;;16.15;100.00;102350.88;5062359;28;45427;-82
2021/10/14 05:53:14;;;;;;;;;47.75;36.50;;;;;16.17;100.00;102364.97;5061179;28;45694;-82
2021/10/14 05:55:39;;;;;;;;;47.75;37.75;;;;;16.11;100.00;102349.38;5061438;28;45445;-82
2021/10/14 05:58:05;;;;;;;;;46.50;35.50;;;;;16.14;100.00;102351.81;5070213;28;45459;-82
2021/10/14 06:00:30;;;;;;;;;40.00;33.25;;;;;16.12;100.00;102351.06;5061422;28;45488;-81
2021/10/14 06:02:55;;;;;;;;;41.25;33.75;;;;;16.25;100.00;102346.66;5065839;28;45578;-82
2021/10/14 06:05:22;;;;;;;;;42.75;33.50;;;;;16.23;100.00;102346.75;5075680;27;45640;-81
2021/10/14 06:07:48;;;;;;;;;44.25;34.75;;;;;16.13;100.00;102347.44;5060468;28;45556;-82
2021/10/14 06:10:14;;;;;;;;;51.00;36.50;;;;;16.13;100.00;102340.31;5061577;28;45483;-81
2021/10/14 06:12:39;;;;;;;;;42.25;36.00;;;;;16.14;100.00;102347.34;5067275;28;45347;-82
2021/10/14 06:15:05;;;;;;;;;41.25;34.00;;;;;16.22;100.00;102344.19;5066734;27;45412;-82
2021/10/14 06:17:31;;;;;;;;;48.75;36.75;;;;;16.19;100.00;102342.59;5070892;27;45319;-82
2021/10/14 06:19:56;;;;;;;;;45.75;36.00;;;;;16.14;100.00;102350.03;5063524;28;45216;-82
2021/10/14 06:22:22;;;;;;;;;42.50;37.00;;;;;16.08;100.00;102351.28;5068564;28;46288;-82
2021/10/14 06:24:47;;;;;;;;;46.25;37.00;;;;;16.07;100.00;102354.06;5059401;28;45235;-81
2021/10/14 06:27:12;;;;;;;;;49.75;37.00;;;;;16.15;100.00;102354.41;5058461;28;45250;-82
2021/10/14 06:29:38;;;;;;;;;44.75;36.25;;;;;16.12;100.00;102345.75;5072008;28;45375;-82
2021/10/14 06:32:03;;;;;;;;;47.00;36.75;;;;;16.11;100.00;102347.56;5079229;28;45507;-82
2021/10/14 06:34:29;;;;;;;;;50.50;37.00;;;;;16.14;100.00;102347.34;5061978;28;45350;-82
2021/10/14 06:36:54;;;;;;;;;47.50;36.25;;;;;16.21;100.00;102340.66;5060414;28;45417;-82
2021/10/14 06:39:19;;;;;;;;;41.00;36.00;;;;;16.30;100.00;102344.53;5075870;28;45581;-82
2021/10/14 06:41:45;;;;;;;;;39.50;35.00;;;;;16.30;100.00;102356.06;5080822;28;48112;-82
2021/10/14 06:44:11;;;;;;;;;41.25;33.75;;;;;16.31;100.00;102349.75;5084176;27;45374;-84
2021/10/14 06:46:38;;;;;;;;;48.25;36.00;;;;;16.27;100.00;102345.59;5073398;27;45485;-82
2021/10/14 06:49:04;;;;;;;;;40.00;34.75;;;;;16.31;100.00;102341.75;5084266;28;44818;-82
2021/10/14 06:51:29;;;;;;;;;39.75;31.50;;;;;16.37;100.00;102352.03;5076161;28;45421;-82
2021/10/14 06:53:55;;;;;;;;;37.50;32.50;;;;;16.41;100.00;102355.34;5066000;27;45449;-83
2021/10/14 06:56:20;;;;;;;;;51.75;36.00;;;;;16.40;100.00;102350.97;5074715;28;45525;-80
2021/10/14 06:58:46;;;;;;;;;38.25;33.50;;;;;16.45;100.00;102343.53;5063437;28;45387;-82
2021/10/14 07:01:13;;;;;;;;;42.50;35.75;;;;;16.48;100.00;102339.81;5066439;28;47241;-82
2021/10/14 07:03:38;;;;;;;;;49.00;35.75;;;;;16.52;100.00;102343.97;5064854;28;45335;-82
2021/10/14 07:06:03;;;;;;;;;45.00;35.25;;;;;16.59;100.00;102348.78;5070502;27;45999;-82
2021/10/14 07:08:29;;;;;;;;;43.75;34.00;;;;;16.61;100.00;102346.00;5074572;28;45333;-82
2021/10/14 07:10:54;;;;;;;;;40.75;33.50;;;;;16.67;100.00;102348.28;5062101;28;45527;-82
2021/10/14 07:13:20;;;;;;;;;40.25;32.75;;;;;16.68;100.00;102345.53;5071317;27;45418;-82
2021/10/14 07:15:45;;;;;;;;;35.75;32.50;;;;;16.69;100.00;102346.38;5077849;27;45577;-82
2021/10/14 07:18:10;;;;;;;;;40.00;34.00;;;;;16.67;100.00;102338.47;5064728;28;45441;-82
2021/10/14 07:20:36;;;;;;;;;41.75;33.25;;;;;16.73;100.00;102345.22;5080872;28;45406;-82
2021/10/14 07:23:10;;;;;;;;;40.00;35.50;;;;;16.70;100.00;102338.28;5078780;28;45983;-82
2021/10/14 07:25:36;;;;;;;;;44.50;35.75;;;;;16.71;100.00;102339.13;5061802;28;45421;-81
2021/10/14 07:28:02;;;;;;;;;37.00;33.00;;;;;16.76;100.00;102342.34;5064380;28;45414;-83
2021/10/14 07:30:27;;;;;;;;;44.00;35.25;;;;;16.91;100.00;102340.44;5070849;28;46452;-81
2021/10/14 07:32:52;;;;;;;;;40.75;35.25;;;;;17.08;100.00;102337.47;5078270;28;45491;-81
2021/10/14 07:35:20;;;;;;;;;45.50;35.50;;;;;17.55;100.00;102336.78;5076922;27;45451;-80
2021/10/14 07:37:46;;;;;;;;;41.00;35.00;;;;;18.72;100.00;102327.25;5067953;28;45582;-81
2021/10/14 07:40:11;;;;;;;;;44.50;33.25;;;;;20.01;100.00;102338.38;5093676;27;48100;-81
2021/10/14 07:42:37;;;;;;;;;39.75;33.75;;;;;21.18;100.00;102326.59;5074170;28;45463;-81
2021/10/14 07:45:03;;;;;;;;;41.50;32.50;;;;;22.22;100.00;102319.97;5069028;28;45857;-81
2021/10/14 07:47:29;;;;;;;;;49.25;37.75;;;;;23.25;100.00;102322.81;5075587;28;46090;-82
2021/10/14 07:49:54;;;;;;;;;36.00;32.75;;;;;24.15;96.96;102317.50;5079679;28;47128;-83
2021/10/14 07:52:20;;;;;;;;;50.00;36.75;;;;;24.89;92.79;102314.41;5066315;28;45411;-81
2021/10/14 07:54:45;;;;;;;;;45.00;34.50;;;;;25.53;91.74;102316.66;5061795;28;46322;-81
2021/10/14 07:57:10;;;;;;;;;47.00;37.75;;;;;26.33;89.51;102306.22;5065250;28;45491;-82
2021/10/14 07:59:36;;;;;;;;;50.75;38.50;;;;;27.05;83.65;102309.91;5073787;28;45446;-82
2021/10/14 08:02:01;;;;;;;;;45.00;33.25;;;;;27.80;77.33;102313.00;5065387;28;45289;-82
2021/10/14 08:04:26;;;;;;;;;45.00;34.50;;;;;28.14;75.23;102309.91;5062312;28;45350;-82
2021/10/14 08:06:52;;;;;;;;;39.00;32.50;;;;;28.72;71.41;102306.56;5082196;27;45464;-82
2021/10/14 08:09:17;;;;;;;;;37.25;33.00;;;;;29.09;69.80;102319.28;5073907;27;46290;-82
2021/10/14 08:11:43;;;;;;;;;40.50;32.25;;;;;29.66;66.37;102316.75;5076097;28;45418;-82
2021/10/14 08:14:08;;;;;;;;;41.25;33.00;;;;;30.22;60.65;102302.50;5067426;28;45513;-82
2021/10/14 08:16:34;;;;;;;;;41.75;34.25;;;;;30.67;61.84;102303.97;5075110;28;45454;-82
2021/10/14 08:18:59;;;;;;;;;45.50;34.00;;;;;31.13;55.41;102301.56;5060945;28;47437;-82
2021/10/14 08:21:25;;;;;;;;;36.25;32.50;;;;;31.46;55.63;102310.75;5070571;28;45398;-82
2021/10/14 08:23:50;;;;;;;;;34.00;30.00;;;;;31.85;54.48;102310.09;5070528;27;45555;-82
2021/10/14 08:26:15;;;;;;;;;37.75;33.25;;;;;32.17;52.20;102310.38;5068429;28;45491;-82
2021/10/14 08:28:41;;;;;;;;;40.50;33.00;;;;;32.50;48.33;102305.78;5066525;27;46015;-80
2021/10/14 08:31:06;;;;;;;;;42.75;33.25;;;;;32.92;51.08;102304.50;5077270;28;45228;-80
2021/10/14 08:33:32;;;;;;;;;38.00;31.00;;;;;33.30;48.17;102301.91;5078490;28;45732;-83
2021/10/14 08:35:57;;;;;;;;;34.50;29.00;;;;;33.61;47.02;102298.38;5073074;27;45377;-82
2021/10/14 08:38:23;;;;;;;;;33.00;29.50;;;;;33.85;44.82;102301.47;5064597;28;45235;-83
2021/10/14 08:40:51;;;;;;;;;35.50;28.25;;;;;33.87;44.91;102302.91;5064235;28;45228;-83
2021/10/14 08:43:18;;;;;;;;;30.00;28.50;;;;;34.10;43.89;102305.09;5070740;27;46497;-83
2021/10/14 08:45:46;;;;;;;;;34.00;27.50;;;;;34.44;42.58;102301.03;5065500;28;45541;-83
2021/10/14 08:48:12;;;;;;;;;32.00;28.75;;;;;34.61;38.64;102299.41;5082706;27;46166;-83
2021/10/14 08:50:44;;;;;;;;;27.00;22.50;;;;;34.61;36.17;102301.31;5081299;27;45363;-82
2021/10/14 08:53:10;;;;;;;;;26.75;21.25;;;;;34.72;36.54;102304.16;5080503;28;45377;-82
2021/10/14 08:55:38;;;;;;;;;27.50;23.25;;;;;34.84;35.88;102301.56;5081031;27;45318;-82
2021/10/14 08:58:07;;;;;;;;;28.25;24.75;;;;;35.01;37.83;102297.16;5076709;28;47084;-83
2021/10/14 09:00:34;;;;;;;;;24.75;22.00;;;;;35.16;37.21;102302.25;5072144;28;45623;-82
2021/10/14 09:03:00;;;;;;;;;26.00;22.25;;;;;35.29;33.68;102301.28;5079459;27;45664;-83
2021/10/14 09:05:30;;;;;;;;;26.75;24.50;;;;;35.36;34.63;102293.81;5077352;27;45186;-83
2021/10/14 09:07:55;;;;;;;;;28.25;19.75;;;;;35.41;32.65;102302.22;5069497;27;45942;-83
2021/10/14 09:10:21;;;;;;;;;21.25;17.00;;;;;35.31;32.55;102291.75;5068347;28;45364;-83
2021/10/14 09:12:47;;;;;;;;;22.75;18.25;;;;;35.60;33.74;102293.69;5069919;28;45434;-83
2021/10/14 09:15:14;;;;;;;;;19.25;17.75;;;;;35.72;32.19;102290.16;5077932;28;45612;-83
2021/10/14 09:17:48;;;;;;;;;18.25;14.50;;;;;35.79;30.66;102291.75;5069539;28;45535;-83
2021/10/14 09:20:29;;;;;;;;;14.50;12.50;;;;;35.39;31.57;102288.69;5061030;28;45465;-82
2021/10/14 09:23:21;;;;;;;;;7.00;6.00;;;;;35.42;30.26;102290.16;5068839;27;45572;-83
2021/10/14 09:25:51;;;;;;;;;9.25;8.00;;;;;35.46;31.86;102278.44;5060654;28;45488;-83
2021/10/14 09:28:21;;;;;;;;;12.75;9.00;;;;;35.67;31.38;102287.28;5059447;28;46100;-83
2021/10/14 09:30:56;;;;;;;;;7.25;7.00;;;;;35.43;30.61;102289.91;5064497;28;45394;-82
2021/10/14 09:33:37;;;;;;;;;4.50;4.50;;;;;35.22;29.48;102290.38;5068211;28;45288;-82
2021/10/14 09:36:23;;;;;;;;;3.50;3.00;;;;;34.71;30.24;102290.66;5068798;28;45374;-83
2021/10/14 09:39:02;;;;;;;;;6.75;4.00;;;;;34.12;29.16;102281.88;5071860;28;46455;-82
2021/10/14 09:41:36;;;;;;;;;5.75;4.75;;;;;33.48;30.18;102283.94;5075120;28;45371;-82
2021/10/14 09:44:05;;;;;;;;;6.50;5.00;;;;;32.64;30.12;102274.63;5070654;28;45424;-82
2021/10/14 09:46:36;;;;;;;;;13.50;11.00;;;;;32.02;32.31;102277.75;5061185;28;45323;-81
2021/10/14 09:49:06;;;;;;;;;17.50;14.50;;;;;31.75;33.12;102281.47;5065758;28;45587;-82
2021/10/14 09:51:32;;;;;;;;;17.25;15.00;;;;;31.54;34.00;102277.81;5067513;27;45849;-82
2021/10/14 09:53:59;;;;;;;;;22.75;21.00;;;;;31.42;34.20;102273.13;5076556;28;45551;-81
2021/10/14 09:56:26;;;;;;;;;20.25;17.00;;;;;31.28;34.23;102269.53;5072829;27;45401;-81
2021/10/14 09:58:52;;;;;;;;;28.75;24.25;;;;;30.88;35.18;102271.16;5070300;28;45514;-81
2021/10/14 10:01:18;;;;;;;;;23.75;22.00;;;;;30.43;36.09;102267.03;5063815;27;45318;-83
2021/10/14 10:03:44;;;;;;;;;30.75;25.75;;;;;30.26;36.22;102258.28;5068809;28;45504;-83
2021/10/14 10:06:11;;;;;;;;;31.50;27.00;;;;;30.11;36.50;102260.25;5076876;27;45577;-85
2021/10/14 10:08:40;;;;;;;;;26.50;24.75;;;;;29.81;36.83;102256.78;5074914;28;47155;-83
2021/10/14 10:11:10;;;;;;;;;23.00;21.75;;;;;29.54;38.10;102255.63;5065825;27;45562;-79
2021/10/14 10:13:39;;;;;;;;;26.25;23.25;;;;;29.48;37.94;102250.13;5068570;27;45358;-82
2021/10/14 10:16:25;;;;;;;;;22.75;20.25;;;;;29.11;38.90;102256.53;5075767;28;45517;-84
2021/10/14 10:18:54;;;;;;;;;24.25;19.00;;;;;29.03;39.30;102257.47;5058816;27;45275;-84
2021/10/14 10:21:32;;;;;;;;;21.50;19.00;;;;;29.14;39.32;102256.13;5059598;28;45439;-83
2021/10/14 10:24:03;;;;;;;;;18.75;17.00;;;;;28.96;39.79;102245.63;5065673;28;45483;-83
2021/10/14 10:26:34;;;;;;;;;17.25;16.75;;;;;28.96;39.93;102249.19;5083457;27;45579;-84
2021/10/14 10:29:04;;;;;;;;;12.25;11.25;;;;;28.95;39.40;102241.25;5077512;28;47388;-83
2021/10/14 10:31:53;;;;;;;;;10.75;7.50;;;;;28.87;38.19;102242.16;5067197;27;45574;-83
2021/10/14 10:34:41;;;;;;;;;13.75;12.00;;;;;28.55;39.45;102246.06;5059283;28;45688;-84
2021/10/14 10:37:26;;;;;;;;;18.50;14.25;;;;;28.19;39.91;102228.75;5059306;28;45251;-84
2021/10/14 10:40:03;;;;;;;;;16.75;14.50;;;;;28.05;40.80;102234.94;5074530;28;46540;-83
2021/10/14 10:42:45;;;;;;;;;15.75;13.00;;;;;27.98;41.60;102234.81;5073443;28;45343;-83
2021/10/14 10:45:20;;;;;;;;;16.25;15.00;;;;;27.95;40.89;102226.22;5064181;28;45255;-83
2021/10/14 10:47:54;;;;;;;;;12.50;12.00;;;;;28.02;41.20;102229.88;5076259;28;45326;-83
2021/10/14 10:50:40;;;;;;;;;9.00;7.75;;;;;28.00;39.79;102219.19;5074589;28;45251;-83
2021/10/14 10:53:07;;;;;;;;;5.25;5.25;;;;;27.87;39.36;102227.94;5069043;28;45518;-83
2021/10/14 10:55:36;;;;;;;;;8.75;5.00;;;;;27.83;39.36;102223.06;5062883;28;45204;-83
2021/10/14 10:58:03;;;;;;;;;12.50;8.00;;;;;27.89;39.14;102222.34;5082780;28;45399;-82
2021/10/14 11:00:29;;;;;;;;;8.75;5.50;;;;;27.85;38.33;102212.88;5073641;27;45392;-84
2021/10/14 11:03:17;;;;;;;;;8.75;6.00;;;;;27.76;38.95;102211.25;5081827;28;45484;-83